createdAt,value
2019-03-24T00:01:46.244Z,23.67
2019-03-24T00:04:18.655Z,23.30
2019-03-24T00:06:51.068Z,23.20
2019-03-24T00:09:23.470Z,23.80
2019-03-24T00:11:55.923Z,23.00
2019-03-24T00:14:28.300Z,23.30
2019-03-24T00:17:00.685Z,23.43
2019-03-24T00:19:33.079Z,22.37
2019-03-24T00:22:05.795Z,23.37
2019-03-24T00:24:38.327Z,23.23
2019-03-24T00:27:10.717Z,23.77
2019-03-24T00:29:43.239Z,23.13
2019-03-24T00:32:15.650Z,22.80
2019-03-24T00:34:48.201Z,23.80
2019-03-24T00:37:20.842Z,23.27
2019-03-24T00:39:53.365Z,24.00
2019-03-24T00:42:25.740Z,23.80
2019-03-24T00:44:58.289Z,22.23
2019-03-24T00:47:30.673Z,25.03
2019-03-24T00:50:03.062Z,23.97
2019-03-24T00:52:35.450Z,22.80
2019-03-24T00:55:09.528Z,23.20
2019-03-24T00:57:41.913Z,22.43
2019-03-24T01:00:15.202Z,23.00
2019-03-24T01:02:47.572Z,23.10
2019-03-24T01:05:19.983Z,24.87
2019-03-24T01:07:52.455Z,22.90
2019-03-24T01:10:24.842Z,24.20
2019-03-24T01:12:57.215Z,24.00
2019-03-24T01:15:29.625Z,23.50
2019-03-24T01:18:02.016Z,24.57
2019-03-24T01:20:34.586Z,22.67
2019-03-24T01:23:06.989Z,22.43
2019-03-24T01:25:39.378Z,23.73
2019-03-24T01:28:11.803Z,23.80
2019-03-24T01:30:44.176Z,23.10
2019-03-24T01:33:16.585Z,23.20
2019-03-24T01:35:48.957Z,22.93
2019-03-24T01:38:21.371Z,22.40
2019-03-24T01:40:53.776Z,22.80
2019-03-24T01:43:26.282Z,22.20
2019-03-24T01:45:59.074Z,23.13
2019-03-24T01:48:31.503Z,25.27
2019-03-24T01:51:03.872Z,24.43
2019-03-24T01:53:36.294Z,23.53
2019-03-24T01:56:08.716Z,25.03
2019-03-24T01:58:41.091Z,23.73
2019-03-24T02:01:13.457Z,23.87
2019-03-24T02:03:45.839Z,24.10
2019-03-24T02:06:18.223Z,23.30
2019-03-24T02:08:50.598Z,23.40
2019-03-24T02:11:23.082Z,22.60
2019-03-24T02:13:55.508Z,23.37
2019-03-24T02:16:27.850Z,23.67
2019-03-24T02:19:00.249Z,22.70
2019-03-24T02:21:32.991Z,22.10
2019-03-24T02:24:05.371Z,22.67
2019-03-24T02:26:37.730Z,22.57
2019-03-24T02:29:10.113Z,24.63
2019-03-24T02:31:42.497Z,24.93
2019-03-24T02:34:14.915Z,23.30
2019-03-24T02:36:47.467Z,24.30
2019-03-24T02:39:19.873Z,24.03
2019-03-24T02:41:52.313Z,24.20
2019-03-24T02:44:24.976Z,24.37
2019-03-24T02:46:57.325Z,24.50
2019-03-24T02:49:29.729Z,23.97
2019-03-24T02:52:02.122Z,25.73
2019-03-24T02:54:34.549Z,23.13
2019-03-24T02:57:06.965Z,23.13
2019-03-24T02:59:39.337Z,23.07
2019-03-24T03:02:11.821Z,22.87
2019-03-24T03:04:44.211Z,22.90
2019-03-24T03:07:16.643Z,23.67
2019-03-24T03:09:49.011Z,23.50
2019-03-24T03:12:21.418Z,23.57
2019-03-24T03:14:53.803Z,25.70
2019-03-24T03:17:26.166Z,25.00
2019-03-24T03:19:59.593Z,24.70
2019-03-24T03:22:32.124Z,24.20
2019-03-24T03:25:05.807Z,24.07
2019-03-24T03:27:38.186Z,22.87
2019-03-24T03:30:11.438Z,24.33
2019-03-24T03:32:43.831Z,24.37
2019-03-24T03:35:16.206Z,24.10
2019-03-24T03:37:48.616Z,24.80
2019-03-24T03:40:20.988Z,24.60
2019-03-24T03:42:53.367Z,25.90
2019-03-24T03:45:30.211Z,25.53
2019-03-24T03:48:02.649Z,22.93
2019-03-24T03:50:34.976Z,23.10
2019-03-24T03:53:07.404Z,25.57
2019-03-24T03:55:40.841Z,25.70
2019-03-24T03:58:13.230Z,24.13
2019-03-24T04:00:45.602Z,24.90
2019-03-24T04:03:18.053Z,24.50
2019-03-24T04:05:50.407Z,24.37
2019-03-24T04:08:23.244Z,25.52
2019-03-24T04:10:55.606Z,26.17
2019-03-24T04:13:28.013Z,28.20
2019-03-24T04:16:00.386Z,26.97
2019-03-24T04:18:32.781Z,25.70
2019-03-24T04:21:05.263Z,25.87
2019-03-24T04:23:37.634Z,25.33
2019-03-24T04:26:10.005Z,24.43
2019-03-24T04:28:42.495Z,26.13
2019-03-24T04:31:14.883Z,26.07
2019-03-24T04:33:47.278Z,25.53
2019-03-24T04:36:19.687Z,25.53
2019-03-24T04:38:52.045Z,26.57
2019-03-24T04:41:24.414Z,25.33
2019-03-24T04:43:56.823Z,26.27
2019-03-24T04:46:29.479Z,26.07
2019-03-24T04:49:01.860Z,25.17
2019-03-24T04:51:35.417Z,27.00
2019-03-24T04:54:08.088Z,25.88
2019-03-24T04:56:40.682Z,26.30
2019-03-24T04:59:13.347Z,26.42
2019-03-24T05:01:45.687Z,27.20
2019-03-24T05:04:19.155Z,26.90
2019-03-24T05:06:51.681Z,25.70
2019-03-24T05:09:24.731Z,23.27
2019-03-24T05:11:57.087Z,26.27
2019-03-24T05:14:29.471Z,26.30
2019-03-24T05:17:01.853Z,27.57
2019-03-24T05:19:34.201Z,26.00
2019-03-24T05:22:06.565Z,25.73
2019-03-24T05:24:38.929Z,27.17
2019-03-24T05:27:11.333Z,26.03
2019-03-24T05:29:43.699Z,25.73
2019-03-24T05:32:16.083Z,27.77
2019-03-24T05:34:48.439Z,27.60
2019-03-24T05:37:20.834Z,26.97
2019-03-24T05:39:53.232Z,26.77
2019-03-24T05:42:25.584Z,28.03
2019-03-24T05:44:57.958Z,28.30
2019-03-24T05:47:37.046Z,27.13
2019-03-24T05:50:04.588Z,29.03
2019-03-24T05:52:37.142Z,28.13
2019-03-24T05:55:10.138Z,28.10
2019-03-24T05:57:42.511Z,28.80
2019-03-24T06:00:15.911Z,28.03
2019-03-24T06:02:48.340Z,29.20
2019-03-24T06:05:20.757Z,27.30
2019-03-24T06:07:53.101Z,29.33
2019-03-24T06:10:25.459Z,28.87
2019-03-24T06:12:57.807Z,29.27
2019-03-24T06:15:30.174Z,27.60
2019-03-24T06:18:02.554Z,30.10
2019-03-24T06:20:34.920Z,29.73
2019-03-24T06:23:07.331Z,30.40
2019-03-24T06:25:39.726Z,30.70
2019-03-24T06:28:12.088Z,27.93
2019-03-24T06:30:44.510Z,27.33
2019-03-24T06:33:16.849Z,29.57
2019-03-24T06:35:49.230Z,28.87
2019-03-24T06:38:21.621Z,31.23
2019-03-24T06:40:54.038Z,34.00
2019-03-24T06:43:26.439Z,33.07
2019-03-24T06:45:58.839Z,34.60
2019-03-24T06:48:31.312Z,34.10
2019-03-24T06:51:03.686Z,35.03
2019-03-24T06:53:36.129Z,37.30
2019-03-24T06:56:08.526Z,36.90
2019-03-24T06:58:40.889Z,31.73
2019-03-24T07:01:13.293Z,35.00
2019-03-24T07:03:45.657Z,33.30
2019-03-24T07:06:18.051Z,32.70
2019-03-24T07:08:50.483Z,35.20
2019-03-24T07:11:24.375Z,35.40
2019-03-24T07:13:56.749Z,34.67
2019-03-24T07:16:31.054Z,35.77
2019-03-24T07:19:03.703Z,36.77
2019-03-24T07:21:36.105Z,37.23
2019-03-24T07:24:08.575Z,37.07
2019-03-24T07:26:41.045Z,37.90
2019-03-24T07:29:14.476Z,39.17
2019-03-24T07:31:47.011Z,41.73
2019-03-24T07:34:19.431Z,40.83
2019-03-24T07:36:51.951Z,43.57
2019-03-24T07:39:24.428Z,39.50
2019-03-24T07:41:56.851Z,39.10
2019-03-24T07:44:29.343Z,47.80
2019-03-24T07:47:03.820Z,47.40
2019-03-24T07:49:36.225Z,48.07
2019-03-24T07:52:08.658Z,41.00
2019-03-24T07:54:41.044Z,45.70
2019-03-24T07:57:13.538Z,46.03
2019-03-24T07:59:45.934Z,48.00
2019-03-24T08:02:18.361Z,46.20
2019-03-24T08:04:50.784Z,48.10
2019-03-24T08:07:23.207Z,47.50
2019-03-24T08:09:55.631Z,48.90
2019-03-24T08:12:28.064Z,50.57
2019-03-24T08:15:00.526Z,52.30
2019-03-24T08:17:33.076Z,52.07
2019-03-24T08:20:05.969Z,50.20
2019-03-24T08:22:38.395Z,51.93
2019-03-24T08:25:10.878Z,50.50
2019-03-24T08:27:43.369Z,54.90
2019-03-24T08:30:19.940Z,52.00
2019-03-24T08:32:52.332Z,51.40
2019-03-24T08:35:24.875Z,52.37
2019-03-24T08:37:57.259Z,51.13
2019-03-24T08:40:29.742Z,50.47
2019-03-24T08:43:04.580Z,75.20
2019-03-24T08:45:37.017Z,53.97
2019-03-24T08:48:09.453Z,51.93
2019-03-24T08:50:41.873Z,54.47
2019-03-24T08:53:14.466Z,55.20
2019-03-24T08:55:49.993Z,51.27
2019-03-24T08:58:22.495Z,53.87
2019-03-24T09:00:54.954Z,53.23
2019-03-24T09:03:27.409Z,52.70
2019-03-24T09:05:59.794Z,53.17
2019-03-24T09:08:32.158Z,52.33
2019-03-24T09:11:04.586Z,53.37
2019-03-24T09:13:37.008Z,53.57
2019-03-24T09:16:09.414Z,54.40
2019-03-24T09:18:51.998Z,55.00
2019-03-24T09:21:15.995Z,55.27
2019-03-24T09:23:48.380Z,54.07
2019-03-24T09:26:20.789Z,52.50
2019-03-24T09:28:53.178Z,54.07
2019-03-24T09:31:26.680Z,54.57
2019-03-24T09:33:59.131Z,55.23
2019-03-24T09:36:31.694Z,55.73
2019-03-24T09:39:05.866Z,54.77
2019-03-24T09:41:38.291Z,55.77
2019-03-24T09:44:10.802Z,54.13
2019-03-24T09:46:43.204Z,54.10
2019-03-24T09:49:15.616Z,55.30
2019-03-24T09:51:48.063Z,56.33
2019-03-24T09:54:20.516Z,56.07
2019-03-24T09:56:52.899Z,55.63
2019-03-24T09:59:25.294Z,54.23
2019-03-24T10:01:58.800Z,54.80
2019-03-24T10:04:31.253Z,54.57
2019-03-24T10:07:03.689Z,54.30
2019-03-24T10:09:36.053Z,54.10
2019-03-24T10:12:08.442Z,57.10
2019-03-24T10:14:40.869Z,54.50
2019-03-24T10:17:13.262Z,57.50
2019-03-24T10:19:45.655Z,55.73
2019-03-24T10:22:18.306Z,58.27
2019-03-24T10:24:50.737Z,54.27
2019-03-24T10:27:24.704Z,57.03
2019-03-24T10:29:57.113Z,57.43
2019-03-24T10:32:29.586Z,56.20
2019-03-24T10:35:02.028Z,55.83
2019-03-24T10:37:34.438Z,58.70
2019-03-24T10:40:08.138Z,55.90
2019-03-24T10:42:41.080Z,53.60
2019-03-24T10:45:13.710Z,55.47
2019-03-24T10:47:46.110Z,54.83
2019-03-24T10:50:19.794Z,52.50
2019-03-24T10:52:52.253Z,55.30
2019-03-24T10:55:24.694Z,53.83
2019-03-24T10:57:57.056Z,54.20
2019-03-24T11:00:48.330Z,56.67
2019-03-24T11:03:20.745Z,57.97
2019-03-24T11:05:53.143Z,56.97
2019-03-24T11:08:26.645Z,54.70
2019-03-24T11:10:59.087Z,56.17
2019-03-24T11:13:31.507Z,54.40
2019-03-24T11:16:03.928Z,54.67
2019-03-24T11:18:36.345Z,56.80
2019-03-24T11:21:09.003Z,57.20
2019-03-24T11:23:41.546Z,55.00
2019-03-24T11:26:14.438Z,57.45
2019-03-24T11:28:46.877Z,55.40
2019-03-24T11:31:19.526Z,53.60
2019-03-24T11:33:53.015Z,51.13
2019-03-24T11:36:25.783Z,52.10
2019-03-24T11:38:59.608Z,51.50
2019-03-24T11:41:31.997Z,52.03
2019-03-24T11:44:04.417Z,50.77
2019-03-24T11:46:36.849Z,51.27
2019-03-24T11:49:17.185Z,49.60
2019-03-24T11:51:49.614Z,48.57
2019-03-24T11:54:22.314Z,52.23
2019-03-24T11:56:54.753Z,50.97
2019-03-24T11:59:27.186Z,50.00
2019-03-24T12:01:59.590Z,47.67
2019-03-24T12:04:33.102Z,48.13
2019-03-24T12:07:05.533Z,46.60
2019-03-24T12:09:38.288Z,47.90
2019-03-24T12:12:10.730Z,47.33
2019-03-24T12:14:43.190Z,45.30
2019-03-24T12:17:15.722Z,48.70
2019-03-24T12:19:56.411Z,46.90
2019-03-24T12:22:22.281Z,46.57
2019-03-24T12:24:54.751Z,46.90
2019-03-24T12:27:28.256Z,44.77
2019-03-24T12:30:00.725Z,49.17
2019-03-24T12:32:33.163Z,46.43
2019-03-24T12:35:06.595Z,49.30
2019-03-24T12:37:39.072Z,46.03
2019-03-24T12:40:12.127Z,49.30
2019-03-24T12:42:44.543Z,48.40
2019-03-24T12:45:17.056Z,47.80
2019-03-24T12:47:49.512Z,47.87
2019-03-24T12:50:30.903Z,45.67
2019-03-24T12:52:56.253Z,49.07
2019-03-24T12:55:28.759Z,46.47
2019-03-24T12:58:01.166Z,46.03
2019-03-24T13:00:39.701Z,47.47
2019-03-24T13:03:12.246Z,47.23
2019-03-24T13:05:44.661Z,47.20
2019-03-24T13:08:18.525Z,48.97
2019-03-24T13:10:51.090Z,48.27
2019-03-24T13:13:23.531Z,43.60
2019-03-24T13:15:55.997Z,44.63
2019-03-24T13:18:28.470Z,47.20
2019-03-24T13:21:00.882Z,48.13
2019-03-24T13:23:33.357Z,46.93
2019-03-24T13:26:05.985Z,45.40
2019-03-24T13:28:38.842Z,48.40
2019-03-24T13:31:11.722Z,45.50
2019-03-24T13:33:44.157Z,46.90
2019-03-24T13:36:16.581Z,44.57
2019-03-24T13:38:49.004Z,44.83
2019-03-24T13:41:21.403Z,44.30
2019-03-24T13:43:53.806Z,45.30
2019-03-24T13:46:26.257Z,43.97
2019-03-24T13:48:58.731Z,45.70
2019-03-24T13:51:31.192Z,43.60
2019-03-24T13:54:03.598Z,45.00
2019-03-24T13:56:36.040Z,45.47
2019-03-24T13:59:08.548Z,45.53
2019-03-24T14:01:41.054Z,44.70
2019-03-24T14:04:13.492Z,45.60
2019-03-24T14:06:45.923Z,43.97
2019-03-24T14:09:18.316Z,44.83
2019-03-24T14:11:52.407Z,43.57
2019-03-24T14:14:24.813Z,42.23
2019-03-24T14:16:57.237Z,41.20
2019-03-24T14:19:29.763Z,42.47
2019-03-24T14:22:02.186Z,42.97
2019-03-24T14:24:34.599Z,42.33
2019-03-24T14:27:07.020Z,43.53
2019-03-24T14:29:39.433Z,43.33
2019-03-24T14:32:11.866Z,42.90
2019-03-24T14:34:44.299Z,44.07
2019-03-24T14:37:16.704Z,42.50
2019-03-24T14:39:49.428Z,45.23
2019-03-24T14:42:21.854Z,45.20
2019-03-24T14:44:54.308Z,44.00
2019-03-24T14:47:26.712Z,43.60
2019-03-24T14:49:59.139Z,44.60
2019-03-24T14:52:31.562Z,44.90
2019-03-24T14:55:04.010Z,43.80
2019-03-24T14:57:36.464Z,45.17
2019-03-24T15:00:09.876Z,45.07
2019-03-24T15:02:42.312Z,44.53
2019-03-24T15:05:14.927Z,43.37
2019-03-24T15:07:47.483Z,42.40
2019-03-24T15:10:19.987Z,43.40
2019-03-24T15:12:53.471Z,42.50
2019-03-24T15:15:25.961Z,43.47
2019-03-24T15:17:58.670Z,46.98
2019-03-24T15:20:31.149Z,42.30
2019-03-24T15:23:03.558Z,42.50
2019-03-24T15:25:36.303Z,43.93
2019-03-24T15:28:08.734Z,43.13
2019-03-24T15:30:41.187Z,40.63
2019-03-24T15:33:13.633Z,41.57
2019-03-24T15:35:46.104Z,40.57
2019-03-24T15:38:18.563Z,40.17
2019-03-24T15:40:51.595Z,44.50
2019-03-24T15:43:24.057Z,41.60
2019-03-24T15:45:56.461Z,49.40
2019-03-24T15:48:28.918Z,40.80
2019-03-24T15:51:01.348Z,42.00
2019-03-24T15:53:33.804Z,40.60
2019-03-24T15:56:06.232Z,41.17
2019-03-24T15:58:38.682Z,41.60
2019-03-24T16:01:11.219Z,40.57
2019-03-24T16:03:43.642Z,39.43
2019-03-24T16:06:16.180Z,40.50
2019-03-24T16:08:48.606Z,39.87
2019-03-24T16:11:21.035Z,40.40
2019-03-24T16:13:54.555Z,43.93
2019-03-24T16:16:27.021Z,39.10
2019-03-24T16:18:59.594Z,41.13
2019-03-24T16:21:32.037Z,40.57
2019-03-24T16:24:04.882Z,38.30
2019-03-24T16:26:37.389Z,42.00
2019-03-24T16:29:09.984Z,40.07
2019-03-24T16:31:42.517Z,37.20
2019-03-24T16:34:14.981Z,38.50
2019-03-24T16:36:47.466Z,37.57
2019-03-24T16:39:20.159Z,40.57
2019-03-24T16:41:52.744Z,39.63
2019-03-24T16:44:25.162Z,40.00
2019-03-24T16:46:57.861Z,39.83
2019-03-24T16:49:30.322Z,38.40
2019-03-24T16:52:03.008Z,39.67
2019-03-24T16:54:35.490Z,39.60
2019-03-24T16:57:07.955Z,41.43
2019-03-24T16:59:40.381Z,40.53
2019-03-24T17:02:12.891Z,40.90
2019-03-24T17:04:45.334Z,39.40
2019-03-24T17:07:18.050Z,40.43
2019-03-24T17:09:50.535Z,40.97
2019-03-24T17:12:23.056Z,39.70
2019-03-24T17:14:55.633Z,42.83
2019-03-24T17:17:28.312Z,40.13
2019-03-24T17:20:00.773Z,39.43
2019-03-24T17:22:33.332Z,40.40
2019-03-24T17:25:06.120Z,39.73
2019-03-24T17:27:38.535Z,38.13
2019-03-24T17:30:13.321Z,38.90
2019-03-24T17:32:45.792Z,42.80
2019-03-24T17:35:18.929Z,42.43
2019-03-24T17:37:51.353Z,40.17
2019-03-24T17:40:23.897Z,40.50
2019-03-24T17:42:56.334Z,39.40
2019-03-24T17:45:28.842Z,38.30
2019-03-24T17:48:01.278Z,39.30
2019-03-24T17:50:33.712Z,42.23
2019-03-24T17:53:06.948Z,40.23
2019-03-24T17:55:39.516Z,43.80
2019-03-24T17:58:12.061Z,39.97
2019-03-24T18:00:49.077Z,39.30
2019-03-24T18:03:21.475Z,39.53
2019-03-24T18:05:53.936Z,37.70
2019-03-24T18:08:27.488Z,39.47
2019-03-24T18:10:59.938Z,40.03
2019-03-24T18:13:32.465Z,38.90
2019-03-24T18:16:06.515Z,42.47
2019-03-24T18:18:38.928Z,42.57
2019-03-24T18:21:11.521Z,40.67
2019-03-24T18:23:45.126Z,42.57
2019-03-24T18:26:17.545Z,41.37
2019-03-24T18:28:50.031Z,41.10
2019-03-24T18:31:23.539Z,43.37
2019-03-24T18:33:55.946Z,41.30
2019-03-24T18:36:28.444Z,42.90
2019-03-24T18:39:00.818Z,48.40
2019-03-24T18:41:34.895Z,46.83
2019-03-24T18:44:08.403Z,51.80
2019-03-24T18:46:40.900Z,43.03
2019-03-24T18:49:13.277Z,42.83
2019-03-24T18:51:45.692Z,54.07
2019-03-24T18:54:18.173Z,51.43
2019-03-24T18:56:50.627Z,42.07
2019-03-24T18:59:24.026Z,42.13
2019-03-24T19:01:56.495Z,41.93
2019-03-24T19:04:28.934Z,42.03
2019-03-24T19:07:01.312Z,43.37
2019-03-24T19:09:33.732Z,42.00
2019-03-24T19:12:06.158Z,42.70
2019-03-24T19:14:40.167Z,43.07
2019-03-24T19:17:12.779Z,47.00
2019-03-24T19:19:45.390Z,40.53
2019-03-24T19:22:17.799Z,39.57
2019-03-24T19:24:50.251Z,38.80
2019-03-24T19:27:22.720Z,40.53
2019-03-24T19:29:55.129Z,39.50
2019-03-24T19:32:28.114Z,39.60
2019-03-24T19:35:00.662Z,40.50
2019-03-24T19:37:33.386Z,36.40
2019-03-24T19:40:08.843Z,50.37
2019-03-24T19:42:41.354Z,39.10
2019-03-24T19:45:14.059Z,39.03
2019-03-24T19:47:46.638Z,42.40
2019-03-24T19:50:19.085Z,45.97
2019-03-24T19:52:51.554Z,45.97
2019-03-24T19:55:23.973Z,49.87
2019-03-24T19:57:56.545Z,45.57
2019-03-24T20:00:28.979Z,44.57
2019-03-24T20:03:01.515Z,42.90
2019-03-24T20:05:33.960Z,42.50
2019-03-24T20:08:06.949Z,42.73
2019-03-24T20:10:39.463Z,43.27
2019-03-24T20:13:12.023Z,44.13
2019-03-24T20:15:44.424Z,42.37
2019-03-24T20:18:16.875Z,44.77
2019-03-24T20:20:51.909Z,43.43
2019-03-24T20:23:23.475Z,42.90
2019-03-24T20:25:55.876Z,38.90
2019-03-24T20:28:28.343Z,40.07
2019-03-24T20:31:00.790Z,38.47
2019-03-24T20:33:33.215Z,42.30
2019-03-24T20:36:05.649Z,40.47
2019-03-24T20:38:38.090Z,41.30
2019-03-24T20:41:10.530Z,39.47
2019-03-24T20:43:43.045Z,40.40
2019-03-24T20:46:15.535Z,38.93
2019-03-24T20:48:48.466Z,39.00
2019-03-24T20:51:20.878Z,38.37
2019-03-24T20:53:53.286Z,39.37
2019-03-24T20:56:25.744Z,39.10
2019-03-24T20:58:58.213Z,39.90
2019-03-24T21:01:30.633Z,38.83
2019-03-24T21:04:03.071Z,39.20
2019-03-24T21:06:35.519Z,38.80
2019-03-24T21:09:09.876Z,38.23
2019-03-24T21:11:42.268Z,35.77
2019-03-24T21:14:14.708Z,37.10
2019-03-24T21:16:47.152Z,37.23
2019-03-24T21:19:19.683Z,34.93
2019-03-24T21:21:52.100Z,36.17
2019-03-24T21:24:24.530Z,37.60
2019-03-24T21:26:56.969Z,36.30
2019-03-24T21:29:29.519Z,37.00
2019-03-24T21:32:01.895Z,37.23
2019-03-24T21:34:34.412Z,36.27
2019-03-24T21:37:06.852Z,34.80
2019-03-24T21:39:39.272Z,35.17
2019-03-24T21:42:11.678Z,34.90
2019-03-24T21:44:44.095Z,39.50
2019-03-24T21:47:16.593Z,40.97
2019-03-24T21:49:49.026Z,35.70
2019-03-24T21:52:21.442Z,33.40
2019-03-24T21:54:53.939Z,33.17
2019-03-24T21:57:26.447Z,33.23
2019-03-24T21:59:58.889Z,33.73
2019-03-24T22:02:31.289Z,33.80
2019-03-24T22:05:03.688Z,34.67
2019-03-24T22:07:36.110Z,35.77
2019-03-24T22:10:08.833Z,35.37
2019-03-24T22:12:41.338Z,34.50
2019-03-24T22:15:14.015Z,35.93
2019-03-24T22:17:46.417Z,34.00
2019-03-24T22:20:18.853Z,33.87
2019-03-24T22:22:51.280Z,34.30
2019-03-24T22:25:23.718Z,31.97
2019-03-24T22:27:56.336Z,33.33
2019-03-24T22:30:29.393Z,32.83
2019-03-24T22:33:02.091Z,31.47
2019-03-24T22:35:34.509Z,30.87
2019-03-24T22:38:06.953Z,29.90
2019-03-24T22:40:39.469Z,29.63
2019-03-24T22:43:11.900Z,28.37
2019-03-24T22:45:44.328Z,27.27
2019-03-24T22:48:16.732Z,29.07
2019-03-24T22:50:49.165Z,26.03
2019-03-24T22:53:21.600Z,26.20
2019-03-24T22:55:54.082Z,25.00
2019-03-24T22:58:26.583Z,23.20
2019-03-24T23:01:00.188Z,24.20
2019-03-24T23:03:34.223Z,22.23
2019-03-24T23:06:06.770Z,21.70
2019-03-24T23:08:39.179Z,22.10
2019-03-24T23:11:11.571Z,21.50
2019-03-24T23:13:44.059Z,21.47
2019-03-24T23:16:16.487Z,20.47
2019-03-24T23:18:48.901Z,20.17
2019-03-24T23:21:21.490Z,21.73
2019-03-24T23:23:53.933Z,21.97
2019-03-24T23:26:26.323Z,20.10
2019-03-24T23:28:58.727Z,20.83
2019-03-24T23:31:31.109Z,19.50
2019-03-24T23:34:03.762Z,20.90
2019-03-24T23:36:36.264Z,19.97
2019-03-24T23:39:09.934Z,20.93
2019-03-24T23:41:42.349Z,21.10
2019-03-24T23:44:15.943Z,19.40
2019-03-24T23:46:48.315Z,19.97
2019-03-24T23:49:20.723Z,20.33
2019-03-24T23:51:53.105Z,21.17
2019-03-24T23:54:27.553Z,20.30
2019-03-24T23:57:00.169Z,20.17
2019-03-24T23:59:32.549Z,21.60
